createdAt,value
2018-05-03T00:00:52.543Z,983.04
2018-05-03T00:01:53.283Z,983.07
2018-05-03T00:02:53.710Z,983.05
2018-05-03T00:03:55.721Z,983.04
2018-05-03T00:04:53.703Z,983.02
2018-05-03T00:05:53.703Z,983.01
2018-05-03T00:06:53.300Z,983.03
2018-05-03T00:07:54.203Z,983.05
2018-05-03T00:08:54.205Z,982.99
2018-05-03T00:09:54.210Z,983.03
2018-05-03T00:10:54.725Z,983.02
2018-05-03T00:11:54.703Z,983.02
2018-05-03T00:12:54.705Z,983.03
2018-05-03T00:13:54.710Z,983.05
2018-05-03T00:14:55.204Z,983.03
2018-05-03T00:15:57.203Z,983.02
2018-05-03T00:16:54.548Z,983.03
2018-05-03T00:17:55.203Z,983.03
2018-05-03T00:20:26.951Z,983.06
2018-05-03T00:21:26.956Z,983.03
2018-05-03T00:22:26.958Z,983.07
2018-05-03T00:23:48.456Z,983.08
2018-05-03T00:24:27.463Z,983.11
2018-05-03T00:25:27.459Z,983.09
2018-05-03T00:26:27.461Z,983.12
2018-05-03T00:27:27.955Z,983.07
2018-05-03T00:29:58.653Z,983.11
2018-05-03T00:30:59.342Z,983.07
2018-05-03T00:31:59.353Z,983.12
2018-05-03T00:32:59.843Z,983.06
2018-05-03T00:33:59.843Z,983.09
2018-05-03T00:35:20.841Z,983.10
2018-05-03T00:35:59.318Z,983.11
2018-05-03T00:37:00.343Z,983.13
2018-05-03T00:38:00.346Z,983.15
2018-05-03T00:39:00.341Z,983.12
2018-05-03T00:40:00.341Z,983.07
2018-05-03T00:41:27.842Z,983.13
2018-05-03T00:42:00.852Z,983.14
2018-05-03T00:43:00.846Z,983.15
2018-05-03T00:44:00.852Z,983.17
2018-05-03T00:45:01.341Z,983.18
2018-05-03T00:46:01.338Z,983.16
2018-05-03T00:47:01.341Z,983.16
2018-05-03T00:48:01.339Z,983.18
2018-05-03T00:49:03.273Z,983.13
2018-05-03T00:50:01.841Z,983.14
2018-05-03T00:51:28.842Z,983.20
2018-05-03T00:52:01.856Z,983.21
2018-05-03T00:54:33.607Z,983.18
2018-05-03T00:55:33.616Z,983.21
2018-05-03T00:56:33.615Z,983.23
2018-05-03T00:57:34.143Z,983.23
2018-05-03T00:58:34.114Z,983.23
2018-05-03T00:59:34.114Z,983.31
2018-05-03T01:00:34.166Z,983.26
2018-05-03T01:01:34.616Z,983.32
2018-05-03T01:02:55.611Z,983.33
2018-05-03T01:05:07.999Z,983.40
2018-05-03T01:06:06.006Z,983.40
2018-05-03T01:07:06.006Z,983.41
2018-05-03T01:08:06.505Z,983.45
2018-05-03T01:09:06.505Z,983.45
2018-05-03T01:10:06.512Z,983.48
2018-05-03T01:11:06.007Z,983.50
2018-05-03T01:12:07.005Z,983.52
2018-05-03T01:13:07.010Z,983.53
2018-05-03T01:14:07.040Z,983.51
2018-05-03T01:15:07.005Z,983.51
2018-05-03T01:17:52.782Z,983.55
2018-05-03T01:18:38.797Z,983.55
2018-05-03T01:19:38.801Z,983.56
2018-05-03T01:20:59.368Z,983.56
2018-05-03T01:23:09.908Z,983.51
2018-05-03T01:24:10.653Z,983.51
2018-05-03T01:25:10.653Z,983.48
2018-05-03T01:27:42.421Z,983.46
2018-05-03T01:28:41.768Z,983.49
2018-05-03T01:29:42.419Z,983.46
2018-05-03T01:30:42.916Z,983.50
2018-05-03T01:32:03.909Z,983.51
2018-05-03T01:34:14.455Z,983.53
2018-05-03T01:35:14.462Z,983.54
2018-05-03T01:36:14.462Z,983.54
2018-05-03T01:38:48.656Z,983.56
2018-05-03T01:39:48.222Z,983.57
2018-05-03T01:40:47.658Z,983.55
2018-05-03T01:42:07.733Z,983.55
2018-05-03T01:43:06.812Z,983.51
2018-05-03T01:43:46.724Z,983.53
2018-05-03T01:45:07.722Z,983.52
2018-05-03T01:45:46.724Z,983.54
2018-05-03T01:48:18.482Z,983.58
2018-05-03T01:49:18.487Z,983.60
2018-05-03T01:50:18.487Z,983.61
2018-05-03T01:52:50.237Z,983.62
2018-05-03T01:53:50.242Z,983.59
2018-05-03T01:54:50.253Z,983.55
2018-05-03T01:56:11.739Z,983.57
2018-05-03T01:56:50.739Z,983.57
2018-05-03T01:57:50.743Z,983.58
2018-05-03T01:58:50.751Z,983.55
2018-05-03T01:59:51.201Z,983.55
2018-05-03T02:00:57.239Z,983.57
2018-05-03T02:01:51.239Z,983.55
2018-05-03T02:03:11.565Z,983.56
2018-05-03T02:03:51.238Z,983.51
2018-05-03T02:04:51.736Z,983.55
2018-05-03T02:05:51.739Z,983.54
2018-05-03T02:06:53.202Z,983.52
2018-05-03T02:10:55.068Z,983.52
2018-05-03T02:12:16.078Z,983.51
2018-05-03T02:12:54.553Z,983.54
2018-05-03T02:15:27.310Z,983.54
2018-05-03T02:16:27.322Z,983.55
2018-05-03T02:17:27.319Z,983.58
2018-05-03T02:19:59.571Z,983.60
2018-05-03T02:20:59.578Z,983.59
2018-05-03T02:21:59.577Z,983.55
2018-05-03T02:27:34.718Z,983.51
2018-05-03T02:28:34.721Z,983.47
2018-05-03T02:29:36.723Z,983.52
2018-05-03T02:30:34.733Z,983.52
2018-05-03T02:31:35.223Z,983.51
2018-05-03T02:32:35.224Z,983.45
2018-05-03T02:33:35.234Z,983.45
2018-05-03T02:34:36.167Z,983.46
2018-05-03T02:35:41.730Z,983.45
2018-05-03T02:36:35.722Z,983.45
2018-05-03T02:37:35.723Z,983.49
2018-05-03T02:38:35.719Z,983.55
2018-05-03T02:39:35.731Z,983.56
2018-05-03T02:40:59.224Z,983.61
2018-05-03T02:41:58.221Z,983.63
2018-05-03T02:42:36.253Z,983.64
2018-05-03T02:43:38.155Z,983.68
2018-05-03T02:44:43.655Z,983.63
2018-05-03T02:45:36.722Z,983.65
2018-05-03T02:46:36.722Z,983.58
2018-05-03T02:47:36.195Z,983.60
2018-05-03T02:55:04.051Z,983.66
2018-05-03T02:55:44.517Z,983.71
2018-05-03T02:56:43.057Z,983.67
2018-05-03T02:58:04.058Z,983.71
2018-05-03T02:58:45.559Z,983.72
2018-05-03T02:59:42.775Z,983.77
2018-05-03T03:00:43.558Z,983.75
2018-05-03T03:03:15.245Z,983.79
2018-05-03T03:04:36.313Z,983.79
2018-05-03T03:06:47.597Z,983.81
2018-05-03T03:07:47.659Z,983.83
2018-05-03T03:08:47.588Z,983.81
2018-05-03T03:09:47.588Z,983.77
2018-05-03T03:12:19.343Z,983.73
2018-05-03T03:13:18.835Z,983.70
2018-05-03T03:14:19.855Z,983.71
2018-05-03T03:15:20.803Z,983.68
2018-05-03T03:16:19.872Z,983.65
2018-05-03T03:17:19.849Z,983.62
2018-05-03T03:18:19.850Z,983.61
2018-05-03T03:19:20.349Z,983.60
2018-05-03T03:20:20.349Z,983.54
2018-05-03T03:21:20.350Z,983.53
2018-05-03T03:22:20.356Z,983.54
2018-05-03T03:24:52.104Z,983.61
2018-05-03T03:25:52.110Z,983.61
2018-05-03T03:26:52.111Z,983.64
2018-05-03T03:27:52.617Z,983.62
2018-05-03T03:28:52.618Z,983.60
2018-05-03T03:29:52.609Z,983.57
2018-05-03T03:30:52.105Z,983.60
2018-05-03T03:31:53.109Z,983.58
2018-05-03T03:32:53.108Z,983.53
2018-05-03T03:34:14.113Z,983.55
2018-05-03T03:34:53.108Z,983.59
2018-05-03T03:35:52.713Z,983.56
2018-05-03T03:38:31.487Z,983.59
2018-05-03T03:39:26.971Z,983.62
2018-05-03T03:40:25.490Z,983.63
2018-05-03T03:41:25.990Z,983.65
2018-05-03T03:42:26.011Z,983.66
2018-05-03T03:43:26.000Z,983.67
2018-05-03T03:44:46.997Z,983.73
2018-05-03T03:48:29.172Z,983.71
2018-05-03T03:49:29.179Z,983.73
2018-05-03T03:50:51.610Z,983.70
2018-05-03T03:51:29.678Z,983.72
2018-05-03T03:52:29.688Z,983.74
2018-05-03T03:53:29.681Z,983.69
2018-05-03T03:54:29.680Z,983.78
2018-05-03T03:55:32.178Z,983.76
2018-05-03T03:56:31.616Z,983.74
2018-05-03T03:57:29.485Z,983.71
2018-05-03T03:58:33.618Z,983.69
2018-05-03T03:59:36.183Z,983.70
2018-05-03T04:02:01.935Z,983.69
2018-05-03T04:03:01.938Z,983.65
2018-05-03T04:04:01.984Z,983.67
2018-05-03T04:05:01.479Z,983.68
2018-05-03T04:07:33.754Z,983.70
2018-05-03T04:08:34.715Z,983.73
2018-05-03T04:09:33.206Z,983.76
2018-05-03T04:10:55.242Z,983.78
2018-05-03T04:11:55.242Z,983.80
2018-05-03T04:12:34.242Z,983.84
2018-05-03T04:13:34.271Z,983.76
2018-05-03T04:14:33.737Z,983.79
2018-05-03T04:18:58.471Z,983.87
2018-05-03T04:19:37.407Z,983.87
2018-05-03T04:20:37.470Z,983.89
2018-05-03T04:21:36.962Z,983.90
2018-05-03T04:22:58.967Z,983.92
2018-05-03T04:23:38.965Z,983.94
2018-05-03T04:24:58.966Z,984.01
2018-05-03T04:25:37.991Z,984.02
2018-05-03T04:26:59.467Z,984.06
2018-05-03T04:28:00.465Z,984.07
2018-05-03T04:28:59.467Z,984.07
2018-05-03T04:29:40.443Z,984.11
2018-05-03T04:30:40.425Z,984.03
2018-05-03T04:32:00.964Z,984.02
2018-05-03T04:33:04.480Z,984.07
2018-05-03T04:33:59.965Z,984.10
2018-05-03T04:34:39.044Z,984.11
2018-05-03T04:35:41.463Z,984.18
2018-05-03T04:36:39.466Z,984.21
2018-05-03T04:38:00.466Z,984.22
2018-05-03T04:38:41.898Z,984.22
2018-05-03T04:41:32.214Z,984.25
2018-05-03T04:42:11.221Z,984.36
2018-05-03T04:43:11.255Z,984.36
2018-05-03T04:44:11.724Z,984.39
2018-05-03T04:48:14.527Z,984.39
2018-05-03T04:49:14.529Z,984.40
2018-05-03T04:50:14.521Z,984.41
2018-05-03T04:51:38.001Z,984.45
2018-05-03T04:52:17.019Z,984.47
2018-05-03T04:53:15.028Z,984.52
2018-05-03T04:54:15.073Z,984.56
2018-05-03T04:55:42.523Z,984.61
2018-05-03T04:57:46.903Z,984.67
2018-05-03T04:58:46.897Z,984.68
2018-05-03T04:59:46.388Z,984.66
2018-05-03T05:00:49.398Z,984.67
2018-05-03T05:01:49.398Z,984.66
2018-05-03T05:02:47.397Z,984.67
2018-05-03T05:03:46.868Z,984.65
2018-05-03T05:04:47.980Z,984.71
2018-05-03T05:05:47.898Z,984.71
2018-05-03T05:06:47.240Z,984.75
2018-05-03T05:07:47.336Z,984.77
2018-05-03T05:08:48.397Z,984.75
2018-05-03T05:11:20.177Z,984.79
2018-05-03T05:12:20.188Z,984.79
2018-05-03T05:13:20.190Z,984.81
2018-05-03T05:14:21.624Z,984.83
2018-05-03T05:15:20.684Z,984.80
2018-05-03T05:16:41.710Z,984.84
2018-05-03T05:17:20.684Z,984.85
2018-05-03T05:18:41.684Z,984.85
2018-05-03T05:19:22.116Z,984.82
2018-05-03T05:20:21.186Z,984.86
2018-05-03T05:21:23.662Z,984.86
2018-05-03T05:22:21.184Z,984.86
2018-05-03T05:23:48.683Z,984.89
2018-05-03T05:24:35.688Z,984.93
2018-05-03T05:25:21.686Z,984.88
2018-05-03T05:26:21.683Z,984.92
2018-05-03T05:27:36.184Z,985.00
2018-05-03T05:28:21.408Z,984.98
2018-05-03T05:29:22.184Z,985.02
2018-05-03T05:30:22.189Z,985.05
2018-05-03T05:31:49.684Z,985.06
2018-05-03T05:32:22.683Z,985.07
2018-05-03T05:33:22.687Z,985.10
2018-05-03T05:34:22.686Z,985.10
2018-05-03T05:35:44.183Z,985.09
2018-05-03T05:36:23.183Z,985.08
2018-05-03T05:37:45.190Z,985.12
2018-05-03T05:38:44.196Z,985.12
2018-05-03T05:40:54.929Z,985.20
2018-05-03T05:43:26.429Z,985.20
2018-05-03T05:44:26.450Z,985.23
2018-05-03T05:45:27.900Z,985.25
2018-05-03T05:48:19.159Z,985.31
2018-05-03T05:52:01.125Z,985.34
2018-05-03T05:53:01.129Z,985.36
2018-05-03T05:54:22.127Z,985.38
2018-05-03T05:55:01.627Z,985.42
2018-05-03T05:56:01.632Z,985.42
2018-05-03T05:57:01.625Z,985.45
2018-05-03T05:58:01.634Z,985.42
2018-05-03T06:02:06.276Z,985.48
2018-05-03T06:03:25.844Z,985.49
2018-05-03T06:04:04.844Z,985.46
2018-05-03T06:06:36.602Z,985.48
2018-05-03T06:07:35.950Z,985.50
2018-05-03T06:10:08.206Z,985.55
2018-05-03T06:11:07.560Z,985.58
2018-05-03T06:12:08.218Z,985.62
2018-05-03T06:14:39.978Z,985.59
2018-05-03T06:15:41.985Z,985.62
2018-05-03T06:16:39.991Z,985.60
2018-05-03T06:17:42.492Z,985.61
2018-05-03T06:19:03.492Z,985.65
2018-05-03T06:19:40.486Z,985.67
2018-05-03T06:20:40.487Z,985.70
2018-05-03T06:23:33.277Z,985.74
2018-05-03T06:24:12.277Z,985.78
2018-05-03T06:25:13.705Z,985.76
2018-05-03T06:28:07.038Z,985.74
2018-05-03T06:30:15.531Z,985.76
2018-05-03T06:31:15.545Z,985.77
2018-05-03T06:32:17.471Z,985.74
2018-05-03T06:34:47.428Z,985.73
2018-05-03T06:35:47.467Z,985.74
2018-05-03T06:36:47.933Z,985.73
2018-05-03T06:37:47.933Z,985.75
2018-05-03T06:38:47.951Z,985.74
2018-05-03T06:39:47.940Z,985.70
2018-05-03T06:40:47.933Z,985.72
2018-05-03T06:41:48.434Z,985.70
2018-05-03T06:42:47.695Z,985.71
2018-05-03T06:43:48.434Z,985.71
2018-05-03T06:44:48.432Z,985.74
2018-05-03T06:47:20.192Z,985.69
2018-05-03T06:48:20.195Z,985.71
2018-05-03T06:49:20.198Z,985.72
2018-05-03T06:50:35.697Z,985.73
2018-05-03T06:51:41.699Z,985.68
2018-05-03T06:52:41.702Z,985.75
2018-05-03T06:53:20.704Z,985.73
2018-05-03T06:54:41.301Z,985.79
2018-05-03T06:55:42.199Z,985.76
2018-05-03T06:56:21.229Z,985.77
2018-05-03T06:57:21.199Z,985.80
2018-05-03T06:58:45.631Z,985.79
2018-05-03T06:59:27.707Z,985.78
2018-05-03T07:00:21.717Z,985.75
2018-05-03T07:01:21.699Z,985.73
2018-05-03T07:02:21.301Z,985.74
2018-05-03T07:03:22.202Z,985.76
2018-05-03T07:04:28.301Z,985.80
2018-05-03T07:05:36.198Z,985.81
2018-05-03T07:06:43.696Z,985.82
2018-05-03T07:07:22.713Z,985.85
2018-05-03T07:08:43.760Z,985.86
2018-05-03T07:09:22.703Z,985.89
2018-05-03T07:10:37.203Z,985.89
2018-05-03T07:11:44.198Z,985.88
2018-05-03T07:12:23.199Z,985.90
2018-05-03T07:13:44.202Z,985.90
2018-05-03T07:14:22.800Z,985.91
2018-05-03T07:15:22.901Z,985.96
2018-05-03T07:16:25.648Z,985.96
2018-05-03T07:17:23.700Z,986.01
2018-05-03T07:18:23.698Z,986.02
2018-05-03T07:19:45.200Z,986.05
2018-05-03T07:20:24.201Z,986.09
2018-05-03T07:21:24.297Z,986.06
2018-05-03T07:22:24.202Z,986.09
2018-05-03T07:23:51.756Z,986.12
2018-05-03T07:24:24.713Z,986.14
2018-05-03T07:25:45.033Z,986.16
2018-05-03T07:26:24.763Z,986.16
2018-05-03T07:27:25.207Z,986.18
2018-05-03T07:28:24.319Z,986.18
2018-05-03T07:31:10.590Z,986.20
2018-05-03T07:32:16.925Z,986.20
2018-05-03T07:32:56.602Z,986.30
2018-05-03T07:33:56.604Z,986.27
2018-05-03T07:34:56.307Z,986.30
2018-05-03T07:35:57.099Z,986.30
2018-05-03T07:37:18.098Z,986.29
2018-05-03T07:38:11.097Z,986.32
2018-05-03T07:38:56.701Z,986.30
2018-05-03T07:41:28.276Z,986.37
2018-05-03T07:42:30.960Z,986.40
2018-05-03T07:45:00.587Z,986.40
2018-05-03T07:46:00.596Z,986.38
2018-05-03T07:47:00.072Z,986.35
2018-05-03T07:48:01.096Z,986.34
2018-05-03T07:50:33.945Z,986.42
2018-05-03T07:51:53.480Z,986.45
2018-05-03T07:52:32.081Z,986.53
2018-05-03T07:55:09.773Z,986.59
2018-05-03T07:56:04.843Z,986.58
2018-05-03T07:57:06.300Z,986.61
2018-05-03T07:58:26.341Z,986.60
2018-05-03T07:59:26.343Z,986.62
2018-05-03T08:01:59.722Z,986.65
2018-05-03T08:02:36.724Z,986.64
2018-05-03T08:03:51.220Z,986.69
2018-05-03T08:04:36.446Z,986.68
2018-05-03T08:07:29.719Z,986.73
2018-05-03T08:08:08.720Z,986.79
2018-05-03T08:09:22.746Z,986.79
2018-05-03T08:10:08.316Z,986.79
2018-05-03T08:11:08.407Z,986.80
2018-05-03T08:12:09.215Z,986.74
2018-05-03T08:13:08.572Z,986.79
2018-05-03T08:14:09.219Z,986.71
2018-05-03T08:16:55.497Z,986.78
2018-05-03T08:17:41.476Z,986.78
2018-05-03T08:18:42.474Z,986.78
2018-05-03T08:20:02.976Z,986.79
2018-05-03T08:21:02.190Z,986.78
2018-05-03T08:21:47.974Z,986.76
2018-05-03T08:22:41.973Z,986.77
2018-05-03T08:23:44.490Z,986.75
2018-05-03T08:24:45.408Z,986.78
2018-05-03T08:25:41.848Z,986.81
2018-05-03T08:26:56.483Z,986.81
2018-05-03T08:28:04.942Z,986.83
2018-05-03T08:28:43.981Z,986.82
2018-05-03T08:29:42.333Z,986.87
2018-05-03T08:30:42.977Z,986.84
2018-05-03T08:34:45.493Z,986.83
2018-05-03T08:35:49.683Z,986.85
2018-05-03T08:36:46.213Z,986.90
2018-05-03T08:40:49.420Z,986.94
2018-05-03T08:42:09.877Z,986.96
2018-05-03T08:43:03.929Z,986.97
2018-05-03T08:44:10.929Z,987.00
2018-05-03T08:45:10.929Z,986.94
2018-05-03T08:45:51.933Z,987.05
2018-05-03T08:46:56.935Z,987.02
2018-05-03T08:47:50.432Z,987.06
2018-05-03T08:49:11.427Z,987.07
2018-05-03T08:49:50.429Z,987.02
2018-05-03T08:50:52.436Z,987.02
2018-05-03T08:51:50.929Z,987.01
2018-05-03T08:52:56.927Z,987.01
2018-05-03T08:55:22.438Z,987.03
2018-05-03T08:56:43.443Z,987.06
2018-05-03T08:57:22.065Z,987.08
2018-05-03T08:58:43.947Z,987.10
2018-05-03T09:01:15.481Z,987.07
2018-05-03T09:02:10.901Z,987.13
2018-05-03T09:03:15.481Z,987.07
2018-05-03T09:03:54.967Z,987.15
2018-05-03T09:06:26.350Z,987.09
2018-05-03T09:07:27.839Z,987.15
2018-05-03T09:08:26.355Z,987.16
2018-05-03T09:09:47.855Z,987.14
2018-05-03T09:10:26.090Z,987.19
2018-05-03T09:11:26.855Z,987.21
2018-05-03T09:12:26.856Z,987.23
2018-05-03T09:15:19.638Z,987.21
2018-05-03T09:15:58.645Z,987.20
2018-05-03T09:17:19.670Z,987.21
2018-05-03T09:18:22.145Z,987.25
2018-05-03T09:19:13.144Z,987.21
2018-05-03T09:19:59.152Z,987.25
2018-05-03T09:20:59.144Z,987.26
2018-05-03T09:23:51.915Z,987.27
2018-05-03T09:24:30.927Z,987.27
2018-05-03T09:25:51.925Z,987.28
2018-05-03T09:26:32.853Z,987.31
2018-05-03T09:27:30.645Z,987.29
2018-05-03T09:28:32.431Z,987.28
2018-05-03T09:29:31.420Z,987.33
2018-05-03T09:30:52.034Z,987.33
2018-05-03T09:31:31.145Z,987.36
2018-05-03T09:34:03.407Z,987.34
2018-05-03T09:35:02.883Z,987.30
2018-05-03T09:36:05.906Z,987.38
2018-05-03T09:37:04.910Z,987.34
2018-05-03T09:38:26.375Z,987.30
2018-05-03T09:39:24.344Z,987.35
2018-05-03T09:41:34.904Z,987.33
2018-05-03T09:42:36.609Z,987.38
2018-05-03T09:43:35.612Z,987.40
2018-05-03T09:44:36.112Z,987.41
2018-05-03T09:45:36.112Z,987.39
2018-05-03T09:46:36.111Z,987.40
2018-05-03T09:47:36.111Z,987.38
2018-05-03T09:50:33.310Z,987.39
2018-05-03T09:51:07.875Z,987.43
2018-05-03T09:52:07.877Z,987.41
2018-05-03T09:53:08.377Z,987.45
2018-05-03T09:55:39.773Z,987.51
2018-05-03T09:57:00.780Z,987.51
2018-05-03T09:57:39.778Z,987.49
2018-05-03T10:00:32.581Z,987.46
2018-05-03T10:01:11.577Z,987.46
2018-05-03T10:02:11.577Z,987.43
2018-05-03T10:04:44.779Z,987.48
2018-05-03T10:05:49.341Z,987.52
2018-05-03T10:06:43.345Z,987.54
2018-05-03T10:10:46.538Z,987.55
2018-05-03T10:11:46.546Z,987.50
2018-05-03T10:12:46.561Z,987.45
2018-05-03T10:13:46.147Z,987.45
2018-05-03T10:14:47.050Z,987.59
2018-05-03T10:17:17.914Z,987.58
2018-05-03T10:18:18.593Z,987.59
2018-05-03T10:19:21.024Z,987.59
2018-05-03T10:20:20.554Z,987.59
2018-05-03T10:21:39.283Z,987.55
2018-05-03T10:23:50.558Z,987.54
2018-05-03T10:24:50.582Z,987.52
2018-05-03T10:25:51.059Z,987.51
2018-05-03T10:27:05.060Z,987.56
2018-05-03T10:27:51.072Z,987.57
2018-05-03T10:28:51.061Z,987.59
2018-05-03T10:30:15.589Z,987.58
2018-05-03T10:30:52.559Z,987.69
2018-05-03T10:31:51.561Z,987.64
2018-05-03T10:32:51.079Z,987.65
2018-05-03T10:34:06.063Z,987.66
2018-05-03T10:36:23.451Z,987.61
2018-05-03T10:37:23.473Z,987.60
2018-05-03T10:38:22.954Z,987.61
2018-05-03T10:40:55.211Z,987.57
2018-05-03T10:41:55.278Z,987.53
2018-05-03T10:42:55.216Z,987.56
2018-05-03T10:46:58.455Z,987.48
2018-05-03T10:47:58.469Z,987.47
2018-05-03T10:48:59.015Z,987.50
2018-05-03T10:49:58.951Z,987.51
2018-05-03T10:51:00.956Z,987.55
2018-05-03T10:51:58.955Z,987.58
2018-05-03T10:53:01.466Z,987.65
2018-05-03T10:54:01.452Z,987.63
2018-05-03T10:55:00.670Z,987.60
2018-05-03T10:55:59.452Z,987.71
2018-05-03T10:58:52.235Z,987.63
2018-05-03T10:59:31.382Z,987.68
2018-05-03T11:01:00.335Z,987.66
2018-05-03T11:03:23.323Z,987.63
2018-05-03T11:04:04.451Z,987.62
2018-05-03T11:06:34.657Z,987.65
2018-05-03T11:07:40.684Z,987.59
2018-05-03T11:11:02.860Z,987.58
2018-05-03T11:12:02.458Z,987.64
2018-05-03T11:13:02.556Z,987.67
2018-05-03T11:14:03.347Z,987.87
2018-05-03T11:16:35.028Z,988.37
2018-05-03T11:17:34.977Z,988.40
2018-05-03T11:18:35.480Z,988.44
2018-05-03T11:21:27.301Z,988.49
2018-05-03T11:22:06.873Z,988.56
2018-05-03T11:23:27.870Z,988.50
2018-05-03T11:25:59.666Z,987.61
2018-05-03T11:26:39.642Z,987.60
2018-05-03T11:27:38.643Z,987.64
2018-05-03T11:30:12.436Z,987.62
2018-05-03T11:31:31.513Z,987.63
2018-05-03T11:32:10.443Z,987.63
2018-05-03T11:33:31.949Z,987.57
2018-05-03T11:34:32.119Z,987.71
2018-05-03T11:35:31.217Z,988.79
2018-05-03T11:36:31.362Z,988.78
2018-05-03T11:37:25.441Z,988.81
2018-05-03T11:38:32.484Z,988.79
2018-05-03T11:40:42.238Z,987.64
2018-05-03T11:42:04.886Z,988.63
2018-05-03T11:42:42.534Z,987.77
2018-05-03T11:44:03.562Z,988.76
2018-05-03T11:44:43.422Z,988.22
2018-05-03T11:45:43.402Z,987.75
2018-05-03T11:46:43.382Z,987.60
2018-05-03T11:47:42.988Z,987.57
2018-05-03T11:49:04.888Z,987.59
2018-05-03T11:50:04.882Z,987.55
2018-05-03T11:50:43.882Z,987.59
2018-05-03T11:51:43.488Z,988.03
2018-05-03T11:54:15.770Z,987.82
2018-05-03T11:55:15.778Z,987.67
2018-05-03T11:56:15.776Z,987.71
2018-05-03T11:57:31.733Z,987.97
2018-05-03T11:58:22.271Z,987.90
2018-05-03T11:59:15.677Z,988.00
2018-05-03T12:00:23.275Z,987.79
2018-05-03T12:01:43.770Z,987.73
2018-05-03T12:02:16.002Z,987.71
2018-05-03T12:03:16.773Z,988.32
2018-05-03T12:04:16.771Z,988.36
2018-05-03T12:05:20.268Z,988.32
2018-05-03T12:06:18.735Z,988.31
2018-05-03T12:07:18.740Z,988.28
2018-05-03T12:08:18.273Z,988.31
2018-05-03T12:09:16.870Z,988.30
2018-05-03T12:10:17.770Z,988.32
2018-05-03T12:11:17.779Z,988.31
2018-05-03T12:12:38.789Z,988.23
2018-05-03T12:13:17.388Z,987.56
2018-05-03T12:14:17.499Z,987.55
2018-05-03T12:15:20.725Z,987.59
2018-05-03T12:16:41.275Z,988.16
2018-05-03T12:20:21.533Z,988.29
2018-05-03T12:21:20.889Z,988.22
2018-05-03T12:22:43.539Z,987.61
2018-05-03T12:23:24.524Z,987.51
2018-05-03T12:24:22.067Z,987.60
2018-05-03T12:25:23.975Z,987.56
2018-05-03T12:26:22.059Z,987.67
2018-05-03T12:27:24.550Z,988.28
2018-05-03T12:28:43.543Z,988.35
2018-05-03T12:29:28.595Z,988.32
2018-05-03T12:30:22.544Z,988.36
2018-05-03T12:31:23.045Z,987.75
2018-05-03T12:32:23.047Z,988.41
2018-05-03T12:33:23.127Z,988.47
2018-05-03T12:34:22.487Z,988.51
2018-05-03T12:37:15.035Z,987.74
2018-05-03T12:37:54.771Z,987.71
2018-05-03T12:38:55.274Z,987.71
2018-05-03T12:39:57.270Z,987.67
2018-05-03T12:40:55.271Z,987.67
2018-05-03T12:41:55.270Z,987.69
2018-05-03T12:42:54.742Z,987.71
2018-05-03T12:43:58.251Z,987.75
2018-05-03T12:46:27.170Z,987.68
2018-05-03T12:47:27.183Z,987.84
2018-05-03T12:48:30.144Z,987.67
2018-05-03T12:49:27.683Z,987.84
2018-05-03T12:50:27.689Z,988.18
2018-05-03T12:51:27.678Z,988.14
2018-05-03T12:52:27.683Z,988.14
2018-05-03T12:56:51.920Z,988.06
2018-05-03T12:57:51.933Z,988.20
2018-05-03T12:58:51.402Z,988.15
2018-05-03T12:59:53.890Z,988.09
2018-05-03T13:00:33.428Z,988.12
2018-05-03T13:01:30.798Z,988.11
2018-05-03T13:02:31.428Z,988.06
2018-05-03T13:03:45.928Z,988.06
2018-05-03T13:06:24.340Z,988.05
2018-05-03T13:07:03.347Z,988.13
2018-05-03T13:08:09.854Z,988.14
2018-05-03T13:09:03.892Z,988.06
2018-05-03T13:10:17.845Z,987.84
2018-05-03T13:11:05.278Z,988.12
2018-05-03T13:12:03.328Z,987.80
2018-05-03T13:13:24.455Z,987.77
2018-05-03T13:14:26.312Z,987.71
2018-05-03T13:15:03.666Z,987.67
2018-05-03T13:16:24.767Z,987.61
2018-05-03T13:17:24.879Z,987.69
2018-05-03T13:18:25.017Z,987.57
2018-05-03T13:19:26.842Z,987.54
2018-05-03T13:20:04.227Z,987.54
2018-05-03T13:21:04.847Z,987.54
2018-05-03T13:22:26.350Z,987.60
2018-05-03T13:23:11.346Z,987.55
2018-05-03T13:24:05.346Z,987.57
2018-05-03T13:25:05.347Z,987.62
2018-05-03T13:27:36.409Z,987.53
2018-05-03T13:28:37.133Z,987.49
2018-05-03T13:29:36.651Z,987.53
2018-05-03T13:32:08.964Z,987.49
2018-05-03T13:33:08.945Z,987.51
2018-05-03T13:34:10.907Z,987.51
2018-05-03T13:35:09.438Z,987.55
2018-05-03T13:36:10.375Z,987.48
2018-05-03T13:37:29.777Z,987.59
2018-05-03T13:38:08.950Z,987.69
2018-05-03T13:39:30.940Z,987.61
2018-05-03T13:40:09.061Z,987.57
2018-05-03T13:41:09.952Z,987.56
2018-05-03T13:42:09.940Z,987.63
2018-05-03T13:43:09.943Z,987.62
2018-05-03T13:44:09.543Z,987.57
2018-05-03T13:45:16.440Z,987.63
2018-05-03T13:46:10.442Z,987.59
2018-05-03T13:47:31.022Z,987.58
2018-05-03T13:48:10.030Z,987.61
2018-05-03T13:49:16.952Z,987.65
2018-05-03T13:50:10.943Z,987.67
2018-05-03T13:51:10.945Z,987.62
2018-05-03T13:52:11.439Z,987.58
2018-05-03T13:53:10.690Z,987.60
2018-05-03T13:54:10.801Z,987.64
2018-05-03T13:55:11.441Z,988.03
2018-05-03T13:57:43.214Z,987.83
2018-05-03T13:58:43.228Z,988.03
2018-05-03T13:59:43.232Z,988.04
2018-05-03T14:00:47.204Z,988.04
2018-05-03T14:01:43.720Z,988.10
2018-05-03T14:02:43.649Z,987.99
2018-05-03T14:04:10.715Z,987.78
2018-05-03T14:04:50.229Z,987.73
2018-05-03T14:05:43.451Z,988.09
2018-05-03T14:07:05.307Z,988.01
2018-05-03T14:10:16.026Z,987.96
2018-05-03T14:11:16.039Z,987.69
2018-05-03T14:12:16.030Z,987.66
2018-05-03T14:15:08.815Z,987.78
2018-05-03T14:15:47.198Z,987.65
2018-05-03T14:17:11.829Z,987.62
2018-05-03T14:17:47.422Z,987.59
2018-05-03T14:18:50.329Z,987.65
2018-05-03T14:19:48.329Z,987.63
2018-05-03T14:20:48.326Z,987.65
2018-05-03T14:22:02.823Z,987.59
2018-05-03T14:22:48.824Z,987.66
2018-05-03T14:23:48.827Z,987.64
2018-05-03T14:24:48.824Z,987.66
2018-05-03T14:26:10.323Z,987.66
2018-05-03T14:26:49.325Z,987.75
2018-05-03T14:28:11.796Z,987.65
2018-05-03T14:28:49.323Z,987.66
2018-05-03T14:29:51.829Z,987.84
2018-05-03T14:30:51.756Z,987.91
2018-05-03T14:31:52.756Z,987.68
2018-05-03T14:32:49.820Z,987.76
2018-05-03T14:34:10.493Z,988.05
2018-05-03T14:34:56.324Z,987.70
2018-05-03T14:35:50.331Z,987.64
2018-05-03T14:36:50.325Z,987.64
2018-05-03T14:38:10.916Z,987.69
2018-05-03T14:38:50.824Z,987.77
2018-05-03T14:39:50.203Z,987.77
2018-05-03T14:40:50.824Z,987.74
2018-05-03T14:42:12.336Z,988.04
2018-05-03T14:43:12.324Z,987.98
2018-05-03T14:44:18.324Z,987.99
2018-05-03T14:45:12.335Z,987.98
2018-05-03T14:45:52.793Z,987.65
2018-05-03T14:48:23.201Z,987.81
2018-05-03T14:49:22.674Z,988.00
2018-05-03T14:50:23.708Z,987.76
2018-05-03T14:52:55.114Z,988.02
2018-05-03T14:53:56.553Z,988.01
2018-05-03T14:55:16.670Z,988.02
2018-05-03T14:57:28.914Z,987.99
2018-05-03T14:58:28.406Z,987.97
2018-05-03T14:59:26.930Z,987.99
2018-05-03T15:02:22.204Z,987.93
2018-05-03T15:02:59.214Z,987.89
2018-05-03T15:07:23.452Z,987.72
2018-05-03T15:08:23.459Z,987.70
2018-05-03T15:09:01.948Z,987.75
2018-05-03T15:10:23.960Z,987.72
2018-05-03T15:11:23.959Z,987.74
2018-05-03T15:12:04.450Z,987.72
2018-05-03T15:13:02.971Z,987.68
2018-05-03T15:14:17.459Z,987.77
2018-05-03T15:15:03.471Z,987.74
2018-05-03T15:16:03.550Z,987.80
2018-05-03T15:17:02.949Z,987.77
2018-05-03T15:21:08.167Z,988.04
2018-05-03T15:22:06.722Z,988.00
2018-05-03T15:23:21.236Z,987.94
2018-05-03T15:24:30.228Z,987.90
2018-05-03T15:25:08.684Z,987.88
2018-05-03T15:26:07.228Z,987.88